Decoded Metar for KHNZ (HENDERSON/OXFORD in NC, USA) (IATA:HNZ) | Meteo·Mobile Aviation Weather
aviador You're here:

KHNZ Decoded Metar

HENDERSON/OXFORD in NC, USA
Report Time2019-02-16 06:45:00
UTC Time2019-02-16 07:11:36
Flight Rules vfr VFR
Wind250° at 03 kt
W.Decomp.*RWY 24: 2.9 kt HW 0.9 kt RCW
W.Rank250° ranks 18
Current wind is below 250° avg. (5.4)
Visibility9999 m
Phenomena:N/A
Clouds:Broken 040 Hf
Broken 055 Hf
Broken 080 Hf
Expected CloudBase > 1,600 ft AGL from Temp-Dew spread
Ceiling4,000 ft
Temp12°C (ISA -2)
Dew Point08°C (77% RH)
AAT10.5°C
QNH1009 hPa
Density Alt577 ft
Elevation528 ft
Report Wrong Elevation
Raw Report
METAR KHNZ 160645Z AUTO 25003KT 10SM BKN040 BKN055 BKN080 12/08 A2979
RMK AO2 T01220082=

Extra information for KHNZ:More info

Metar Taf Metar & Taf Last 4 Metars F.Rules Stats Wind Profile Meteogram Temp Stats Airport Information Weather charts Add Link Nearby VenuesMetar ALERT Operation Metar Decoded Social comments

AIRNAV info for KHNZ